sensor_id;sensor_type;location;lat;lon;timestamp;pressure;altitude;pressure_sealevel;temperature;humidity
66945;BME280;53853;51.982;5.928;2023-05-23T00:00:49;101716.94;;;16.36;72.18
66945;BME280;53853;51.982;5.928;2023-05-23T00:03:19;101717.59;;;16.38;72.47
66945;BME280;53853;51.982;5.928;2023-05-23T00:05:49;101710.19;;;16.40;72.14
66945;BME280;53853;51.982;5.928;2023-05-23T00:08:19;101713.06;;;16.38;72.27
66945;BME280;53853;51.982;5.928;2023-05-23T00:10:49;101716.94;;;16.36;72.24
66945;BME280;53853;51.982;5.928;2023-05-23T00:13:19;101721.97;;;16.39;72.35
66945;BME280;53853;51.982;5.928;2023-05-23T00:15:52;101715.91;;;16.37;72.53
66945;BME280;53853;51.982;5.928;2023-05-23T00:18:22;101713.59;;;16.34;72.72
66945;BME280;53853;51.982;5.928;2023-05-23T00:20:51;101710.88;;;16.34;72.75
66945;BME280;53853;51.982;5.928;2023-05-23T00:23:23;101724.34;;;16.34;73.03
66945;BME280;53853;51.982;5.928;2023-05-23T00:25:55;101721.66;;;16.34;73.27
66945;BME280;53853;51.982;5.928;2023-05-23T00:28:26;101719.97;;;16.33;73.14
66945;BME280;53853;51.982;5.928;2023-05-23T00:30:58;101721.13;;;16.30;73.11
66945;BME280;53853;51.982;5.928;2023-05-23T00:33:28;101720.44;;;16.28;73.35
66945;BME280;53853;51.982;5.928;2023-05-23T00:35:59;101725.34;;;16.24;73.66
66945;BME280;53853;51.982;5.928;2023-05-23T00:38:29;101728.50;;;16.20;73.79
66945;BME280;53853;51.982;5.928;2023-05-23T00:40:58;101730.00;;;16.22;74.04
66945;BME280;53853;51.982;5.928;2023-05-23T00:43:28;101720.94;;;16.23;74.26
66945;BME280;53853;51.982;5.928;2023-05-23T00:46:01;101728.34;;;16.21;74.35
66945;BME280;53853;51.982;5.928;2023-05-23T00:48:31;101727.66;;;16.19;74.50
66945;BME280;53853;51.982;5.928;2023-05-23T00:51:01;101729.66;;;16.17;74.66
66945;BME280;53853;51.982;5.928;2023-05-23T00:53:31;101734.38;;;16.15;74.85
66945;BME280;53853;51.982;5.928;2023-05-23T00:56:02;101732.03;;;16.12;75.57
66945;BME280;53853;51.982;5.928;2023-05-23T00:58:32;101731.84;;;16.05;76.00
66945;BME280;53853;51.982;5.928;2023-05-23T01:01:04;101739.22;;;16.03;75.95
66945;BME280;53853;51.982;5.928;2023-05-23T01:03:34;101744.56;;;15.95;76.02
66945;BME280;53853;51.982;5.928;2023-05-23T01:06:04;101735.16;;;15.91;76.53
66945;BME280;53853;51.982;5.928;2023-05-23T01:08:34;101735.50;;;15.88;76.84
66945;BME280;53853;51.982;5.928;2023-05-23T01:11:07;101744.03;;;15.83;77.22
66945;BME280;53853;51.982;5.928;2023-05-23T01:13:45;101742.81;;;15.78;77.07
66945;BME280;53853;51.982;5.928;2023-05-23T01:16:31;101739.59;;;15.74;77.32
66945;BME280;53853;51.982;5.928;2023-05-23T01:19:12;101747.31;;;15.69;77.39
66945;BME280;53853;51.982;5.928;2023-05-23T01:21:51;101755.84;;;15.64;77.70
66945;BME280;53853;51.982;5.928;2023-05-23T01:24:31;101752.31;;;15.64;77.80
66945;BME280;53853;51.982;5.928;2023-05-23T01:27:10;101754.63;;;15.58;77.98
66945;BME280;53853;51.982;5.928;2023-05-23T01:29:53;101760.13;;;15.49;77.96
66945;BME280;53853;51.982;5.928;2023-05-23T01:32:25;101765.16;;;15.44;78.63
66945;BME280;53853;51.982;5.928;2023-05-23T01:34:59;101753.88;;;15.40;78.48
66945;BME280;53853;51.982;5.928;2023-05-23T01:37:30;101754.56;;;15.42;78.93
66945;BME280;53853;51.982;5.928;2023-05-23T01:39:59;101747.66;;;15.39;78.62
66945;BME280;53853;51.982;5.928;2023-05-23T01:42:30;101752.53;;;15.44;78.68
66945;BME280;53853;51.982;5.928;2023-05-23T01:45:03;101754.75;;;15.49;78.37
66945;BME280;53853;51.982;5.928;2023-05-23T01:47:34;101761.66;;;15.51;78.23
66945;BME280;53853;51.982;5.928;2023-05-23T01:50:06;101759.81;;;15.52;78.09
66945;BME280;53853;51.982;5.928;2023-05-23T01:52:36;101757.97;;;15.52;77.63
66945;BME280;53853;51.982;5.928;2023-05-23T01:55:07;101756.81;;;15.55;77.04
66945;BME280;53853;51.982;5.928;2023-05-23T01:57:38;101773.25;;;15.52;77.20
66945;BME280;53853;51.982;5.928;2023-05-23T02:00:12;101762.50;;;15.52;77.61
66945;BME280;53853;51.982;5.928;2023-05-23T02:02:42;101765.84;;;15.54;77.48
66945;BME280;53853;51.982;5.928;2023-05-23T02:05:12;101758.34;;;15.57;77.67
66945;BME280;53853;51.982;5.928;2023-05-23T02:07:42;101769.91;;;15.58;77.51
66945;BME280;53853;51.982;5.928;2023-05-23T02:10:12;101772.78;;;15.56;77.21
66945;BME280;53853;51.982;5.928;2023-05-23T02:12:42;101776.59;;;15.54;77.33
66945;BME280;53853;51.982;5.928;2023-05-23T02:15:14;101770.09;;;15.56;77.56
66945;BME280;53853;51.982;5.928;2023-05-23T02:17:45;101771.78;;;15.57;77.35
66945;BME280;53853;51.982;5.928;2023-05-23T02:20:16;101776.44;;;15.55;77.57
66945;BME280;53853;51.982;5.928;2023-05-23T02:22:48;101788.22;;;15.54;77.71
66945;BME280;53853;51.982;5.928;2023-05-23T02:25:18;101780.16;;;15.54;77.66
66945;BME280;53853;51.982;5.928;2023-05-23T02:27:48;101784.19;;;15.58;77.50
66945;BME280;53853;51.982;5.928;2023-05-23T02:30:20;101780.66;;;15.58;77.34
66945;BME280;53853;51.982;5.928;2023-05-23T02:32:50;101787.03;;;15.57;77.43
66945;BME280;53853;51.982;5.928;2023-05-23T02:35:20;101798.81;;;15.56;77.55
66945;BME280;53853;51.982;5.928;2023-05-23T02:37:50;101796.28;;;15.54;77.29
66945;BME280;53853;51.982;5.928;2023-05-23T02:40:20;101790.50;;;15.49;77.18
66945;BME280;53853;51.982;5.928;2023-05-23T02:42:50;101792.22;;;15.50;77.37
66945;BME280;53853;51.982;5.928;2023-05-23T02:45:26;101797.44;;;15.52;77.32
66945;BME280;53853;51.982;5.928;2023-05-23T02:47:56;101810.03;;;15.51;77.43
66945;BME280;53853;51.982;5.928;2023-05-23T02:50:26;101808.84;;;15.54;77.14
66945;BME280;53853;51.982;5.928;2023-05-23T02:52:56;101808.31;;;15.50;77.21
66945;BME280;53853;51.982;5.928;2023-05-23T02:55:25;101806.28;;;15.44;77.25
66945;BME280;53853;51.982;5.928;2023-05-23T02:57:57;101807.97;;;15.45;77.18
66945;BME280;53853;51.982;5.928;2023-05-23T03:00:30;101793.66;;;15.45;77.31
66945;BME280;53853;51.982;5.928;2023-05-23T03:03:01;101813.34;;;15.45;77.36
66945;BME280;53853;51.982;5.928;2023-05-23T03:05:31;101797.53;;;15.42;77.41
66945;BME280;53853;51.982;5.928;2023-05-23T03:08:00;101803.59;;;15.44;77.12
66945;BME280;53853;51.982;5.928;2023-05-23T03:10:31;101796.34;;;15.45;76.85
66945;BME280;53853;51.982;5.928;2023-05-23T03:13:00;101801.22;;;15.41;76.78
66945;BME280;53853;51.982;5.928;2023-05-23T03:15:33;101808.44;;;15.40;77.01
66945;BME280;53853;51.982;5.928;2023-05-23T03:18:03;101801.38;;;15.39;77.11
66945;BME280;53853;51.982;5.928;2023-05-23T03:20:33;101806.22;;;15.36;77.06
66945;BME280;53853;51.982;5.928;2023-05-23T03:23:04;101809.06;;;15.34;77.50
66945;BME280;53853;51.982;5.928;2023-05-23T03:25:34;101818.44;;;15.30;77.39
66945;BME280;53853;51.982;5.928;2023-05-23T03:28:04;101810.84;;;15.26;77.75
66945;BME280;53853;51.982;5.928;2023-05-23T03:30:37;101821.56;;;15.26;77.93
66945;BME280;53853;51.982;5.928;2023-05-23T03:33:07;101818.22;;;15.24;77.95
66945;BME280;53853;51.982;5.928;2023-05-23T03:35:37;101819.41;;;15.21;77.69
66945;BME280;53853;51.982;5.928;2023-05-23T03:38:06;101818.16;;;15.15;77.85
66945;BME280;53853;51.982;5.928;2023-05-23T03:40:37;101808.25;;;15.16;77.90
66945;BME280;53853;51.982;5.928;2023-05-23T03:43:07;101816.16;;;15.17;77.87
66945;BME280;53853;51.982;5.928;2023-05-23T03:45:42;101826.75;;;15.19;77.81
66945;BME280;53853;51.982;5.928;2023-05-23T03:48:14;101822.91;;;15.21;77.40
66945;BME280;53853;51.982;5.928;2023-05-23T03:50:45;101817.69;;;15.20;77.11
66945;BME280;53853;51.982;5.928;2023-05-23T03:53:15;101819.69;;;15.18;76.83
66945;BME280;53853;51.982;5.928;2023-05-23T03:55:44;101833.28;;;15.16;76.38
66945;BME280;53853;51.982;5.928;2023-05-23T03:58:14;101827.91;;;15.16;76.49
66945;BME280;53853;51.982;5.928;2023-05-23T04:00:50;101833.59;;;15.13;76.23
66945;BME280;53853;51.982;5.928;2023-05-23T04:03:21;101829.72;;;15.16;76.09
66945;BME280;53853;51.982;5.928;2023-05-23T04:05:52;101836.81;;;15.17;76.03
66945;BME280;53853;51.982;5.928;2023-05-23T04:08:23;101831.28;;;15.18;75.82
66945;BME280;53853;51.982;5.928;2023-05-23T04:10:53;101838.66;;;15.16;75.64
66945;BME280;53853;51.982;5.928;2023-05-23T04:13:25;101850.38;;;15.15;75.68
66945;BME280;53853;51.982;5.928;2023-05-23T04:16:00;101841.03;;;15.19;75.84
66945;BME280;53853;51.982;5.928;2023-05-23T04:18:31;101840.38;;;15.26;75.83
66945;BME280;53853;51.982;5.928;2023-05-23T04:21:02;101846.16;;;15.31;75.29
66945;BME280;53853;51.982;5.928;2023-05-23T04:23:34;101847.66;;;15.33;74.98
66945;BME280;53853;51.982;5.928;2023-05-23T04:26:04;101851.38;;;15.32;74.90
66945;BME280;53853;51.982;5.928;2023-05-23T04:28:40;101853.91;;;15.34;75.15
66945;BME280;53853;51.982;5.928;2023-05-23T04:31:14;101849.50;;;15.33;74.49
66945;BME280;53853;51.982;5.928;2023-05-23T04:33:45;101853.34;;;15.30;74.54
66945;BME280;53853;51.982;5.928;2023-05-23T04:36:16;101862.56;;;15.28;74.14
66945;BME280;53853;51.982;5.928;2023-05-23T04:38:51;101869.09;;;15.25;74.10
66945;BME280;53853;51.982;5.928;2023-05-23T04:41:21;101877.44;;;15.22;73.66
66945;BME280;53853;51.982;5.928;2023-05-23T04:43:51;101867.31;;;15.16;73.71
66945;BME280;53853;51.982;5.928;2023-05-23T04:46:34;101881.91;;;15.13;74.08
66945;BME280;53853;51.982;5.928;2023-05-23T04:49:20;101879.38;;;15.12;74.21
66945;BME280;53853;51.982;5.928;2023-05-23T04:51:51;101890.13;;;15.12;74.20
66945;BME280;53853;51.982;5.928;2023-05-23T04:54:28;101883.91;;;15.11;73.65
66945;BME280;53853;51.982;5.928;2023-05-23T04:57:03;101886.19;;;15.06;73.62
66945;BME280;53853;51.982;5.928;2023-05-23T04:59:33;101902.47;;;15.04;73.83
66945;BME280;53853;51.982;5.928;2023-05-23T05:02:06;101896.50;;;14.93;74.16
66945;BME280;53853;51.982;5.928;2023-05-23T05:04:36;101903.53;;;14.94;74.03
66945;BME280;53853;51.982;5.928;2023-05-23T05:07:07;101903.53;;;14.94;74.31
66945;BME280;53853;51.982;5.928;2023-05-23T05:09:36;101906.50;;;14.91;74.29
66945;BME280;53853;51.982;5.928;2023-05-23T05:12:08;101906.50;;;14.91;74.51
66945;BME280;53853;51.982;5.928;2023-05-23T05:14:39;101910.75;;;14.93;74.68
66945;BME280;53853;51.982;5.928;2023-05-23T05:17:11;101916.13;;;14.93;74.78
66945;BME280;53853;51.982;5.928;2023-05-23T05:20:03;101913.06;;;14.88;74.70
66945;BME280;53853;51.982;5.928;2023-05-23T05:22:37;101934.81;;;14.85;75.02
66945;BME280;53853;51.982;5.928;2023-05-23T05:25:11;101930.75;;;14.81;74.99
66945;BME280;53853;51.982;5.928;2023-05-23T05:27:40;101933.56;;;14.79;75.23
66945;BME280;53853;51.982;5.928;2023-05-23T05:30:13;101925.00;;;14.76;75.10
66945;BME280;53853;51.982;5.928;2023-05-23T05:33:04;101929.00;;;14.62;75.35
66945;BME280;53853;51.982;5.928;2023-05-23T05:35:35;101944.53;;;14.58;75.74
66945;BME280;53853;51.982;5.928;2023-05-23T05:38:05;101941.63;;;14.52;75.76
66945;BME280;53853;51.982;5.928;2023-05-23T05:40:37;101943.59;;;14.49;75.67
66945;BME280;53853;51.982;5.928;2023-05-23T05:43:07;101957.75;;;14.42;75.71
66945;BME280;53853;51.982;5.928;2023-05-23T05:45:37;101953.13;;;14.34;75.83
66945;BME280;53853;51.982;5.928;2023-05-23T05:48:11;101950.44;;;14.34;75.63
66945;BME280;53853;51.982;5.928;2023-05-23T05:50:41;101947.03;;;14.32;75.46
66945;BME280;53853;51.982;5.928;2023-05-23T05:53:12;101958.63;;;14.32;75.27
66945;BME280;53853;51.982;5.928;2023-05-23T05:55:42;101964.28;;;14.29;75.42
66945;BME280;53853;51.982;5.928;2023-05-23T05:58:12;101964.72;;;14.25;75.79
66945;BME280;53853;51.982;5.928;2023-05-23T06:01:02;101967.56;;;14.23;75.35
66945;BME280;53853;51.982;5.928;2023-05-23T06:03:34;101968.38;;;14.24;75.05
66945;BME280;53853;51.982;5.928;2023-05-23T06:06:04;101965.03;;;14.22;75.25
66945;BME280;53853;51.982;5.928;2023-05-23T06:08:37;101986.31;;;14.23;75.46
66945;BME280;53853;51.982;5.928;2023-05-23T06:11:10;101990.41;;;14.18;74.61
66945;BME280;53853;51.982;5.928;2023-05-23T06:13:40;101979.84;;;14.16;74.89
66945;BME280;53853;51.982;5.928;2023-05-23T06:16:10;101996.50;;;14.20;74.41
66945;BME280;53853;51.982;5.928;2023-05-23T06:18:43;101982.53;;;14.16;74.04
66945;BME280;53853;51.982;5.928;2023-05-23T06:21:13;101989.03;;;14.13;74.41
66945;BME280;53853;51.982;5.928;2023-05-23T06:23:43;101987.03;;;14.16;74.56
66945;BME280;53853;51.982;5.928;2023-05-23T06:26:14;101997.63;;;14.17;73.68
66945;BME280;53853;51.982;5.928;2023-05-23T06:28:44;102000.06;;;14.10;73.66
66945;BME280;53853;51.982;5.928;2023-05-23T06:31:13;102015.59;;;14.07;73.98
66945;BME280;53853;51.982;5.928;2023-05-23T06:33:46;102003.72;;;14.00;72.93
66945;BME280;53853;51.982;5.928;2023-05-23T06:36:17;101994.41;;;13.94;72.63
66945;BME280;53853;51.982;5.928;2023-05-23T06:38:48;102000.78;;;13.93;72.58
66945;BME280;53853;51.982;5.928;2023-05-23T06:41:18;102002.34;;;13.86;72.37
66945;BME280;53853;51.982;5.928;2023-05-23T06:43:48;102003.19;;;13.86;72.15
66945;BME280;53853;51.982;5.928;2023-05-23T06:46:31;102002.34;;;13.86;71.29
66945;BME280;53853;51.982;5.928;2023-05-23T06:49:04;102014.91;;;13.85;70.69
66945;BME280;53853;51.982;5.928;2023-05-23T06:51:35;102014.34;;;13.82;70.50
66945;BME280;53853;51.982;5.928;2023-05-23T06:54:06;102032.53;;;13.88;69.88
66945;BME280;53853;51.982;5.928;2023-05-23T06:56:36;102022.94;;;13.85;69.18
66945;BME280;53853;51.982;5.928;2023-05-23T06:59:06;102019.41;;;13.85;69.07
66945;BME280;53853;51.982;5.928;2023-05-23T07:01:36;102036.88;;;13.89;68.94
66945;BME280;53853;51.982;5.928;2023-05-23T07:04:08;102031.94;;;13.94;67.77
66945;BME280;53853;51.982;5.928;2023-05-23T07:06:38;102036.19;;;13.97;67.39
66945;BME280;53853;51.982;5.928;2023-05-23T07:09:08;102044.91;;;13.99;66.37
66945;BME280;53853;51.982;5.928;2023-05-23T07:11:39;102030.94;;;14.05;66.14
66945;BME280;53853;51.982;5.928;2023-05-23T07:14:09;102037.97;;;14.25;66.16
66945;BME280;53853;51.982;5.928;2023-05-23T07:16:42;102034.13;;;14.38;64.90
66945;BME280;53853;51.982;5.928;2023-05-23T07:19:14;102041.44;;;14.45;62.32
66945;BME280;53853;51.982;5.928;2023-05-23T07:21:47;102048.47;;;14.56;61.50
66945;BME280;53853;51.982;5.928;2023-05-23T07:24:18;102041.69;;;14.62;61.23
66945;BME280;53853;51.982;5.928;2023-05-23T07:26:48;102026.72;;;14.69;60.63
66945;BME280;53853;51.982;5.928;2023-05-23T07:29:18;102056.03;;;14.80;60.55
66945;BME280;53853;51.982;5.928;2023-05-23T07:31:51;102035.06;;;14.94;61.05
66945;BME280;53853;51.982;5.928;2023-05-23T07:34:25;102038.69;;;15.02;60.73
66945;BME280;53853;51.982;5.928;2023-05-23T07:36:59;102041.91;;;15.06;59.27
66945;BME280;53853;51.982;5.928;2023-05-23T07:39:36;102059.63;;;14.99;58.56
66945;BME280;53853;51.982;5.928;2023-05-23T07:42:06;102068.88;;;14.87;58.88
66945;BME280;53853;51.982;5.928;2023-05-23T07:44:37;102061.31;;;14.72;58.93
66945;BME280;53853;51.982;5.928;2023-05-23T07:47:07;102059.16;;;14.76;59.87
66945;BME280;53853;51.982;5.928;2023-05-23T07:49:39;102047.69;;;14.83;59.14
66945;BME280;53853;51.982;5.928;2023-05-23T07:52:10;102061.34;;;14.90;58.55
66945;BME280;53853;51.982;5.928;2023-05-23T07:54:40;102060.91;;;14.95;58.88
66945;BME280;53853;51.982;5.928;2023-05-23T07:57:11;102060.41;;;15.09;60.00
66945;BME280;53853;51.982;5.928;2023-05-23T07:59:42;102060.59;;;15.26;59.03
66945;BME280;53853;51.982;5.928;2023-05-23T08:02:12;102066.63;;;15.37;59.82
66945;BME280;53853;51.982;5.928;2023-05-23T08:04:46;102057.09;;;15.43;59.73
66945;BME280;53853;51.982;5.928;2023-05-23T08:07:16;102071.47;;;15.52;59.85
66945;BME280;53853;51.982;5.928;2023-05-23T08:09:53;102069.94;;;15.67;58.94
66945;BME280;53853;51.982;5.928;2023-05-23T08:12:23;102085.50;;;15.64;59.04
66945;BME280;53853;51.982;5.928;2023-05-23T08:15:01;102082.34;;;15.50;58.97
66945;BME280;53853;51.982;5.928;2023-05-23T08:17:38;102076.75;;;15.44;59.54
66945;BME280;53853;51.982;5.928;2023-05-23T08:20:11;102093.84;;;15.43;59.99
66945;BME280;53853;51.982;5.928;2023-05-23T08:22:41;102108.75;;;15.37;59.91
66945;BME280;53853;51.982;5.928;2023-05-23T08:25:11;102101.59;;;15.28;58.95
66945;BME280;53853;51.982;5.928;2023-05-23T08:27:41;102111.63;;;15.26;59.00
66945;BME280;53853;51.982;5.928;2023-05-23T08:30:31;102103.31;;;15.19;58.59
66945;BME280;53853;51.982;5.928;2023-05-23T08:33:01;102102.19;;;15.21;58.99
66945;BME280;53853;51.982;5.928;2023-05-23T08:35:37;102112.41;;;15.36;58.84
66945;BME280;53853;51.982;5.928;2023-05-23T08:38:10;102105.00;;;15.48;58.33
66945;BME280;53853;51.982;5.928;2023-05-23T08:40:49;102105.56;;;15.69;58.36
66945;BME280;53853;51.982;5.928;2023-05-23T08:43:21;102113.13;;;15.84;55.92
66945;BME280;53853;51.982;5.928;2023-05-23T08:45:51;102109.38;;;15.94;56.45
66945;BME280;53853;51.982;5.928;2023-05-23T08:48:23;102104.84;;;16.13;54.96
66945;BME280;53853;51.982;5.928;2023-05-23T08:50:59;102109.81;;;16.26;54.24
66945;BME280;53853;51.982;5.928;2023-05-23T08:53:31;102111.88;;;16.32;54.66
66945;BME280;53853;51.982;5.928;2023-05-23T08:56:06;102117.47;;;16.39;55.08
66945;BME280;53853;51.982;5.928;2023-05-23T08:58:43;102112.56;;;16.34;55.36
66945;BME280;53853;51.982;5.928;2023-05-23T09:01:17;102122.78;;;16.30;56.31
66945;BME280;53853;51.982;5.928;2023-05-23T09:03:51;102120.25;;;16.29;53.97
66945;BME280;53853;51.982;5.928;2023-05-23T09:06:29;102110.94;;;16.23;54.55
66945;BME280;53853;51.982;5.928;2023-05-23T09:09:00;102125.78;;;16.27;54.08
66945;BME280;53853;51.982;5.928;2023-05-23T09:11:30;102127.00;;;16.33;54.91
66945;BME280;53853;51.982;5.928;2023-05-23T09:14:02;102125.91;;;16.44;55.25
66945;BME280;53853;51.982;5.928;2023-05-23T09:16:34;102128.66;;;16.52;53.41
66945;BME280;53853;51.982;5.928;2023-05-23T09:19:10;102126.97;;;16.51;52.50
66945;BME280;53853;51.982;5.928;2023-05-23T09:21:47;102131.03;;;16.55;52.11
66945;BME280;53853;51.982;5.928;2023-05-23T09:24:33;102144.16;;;16.58;52.58
66945;BME280;53853;51.982;5.928;2023-05-23T09:27:07;102149.66;;;16.75;52.21
66945;BME280;53853;51.982;5.928;2023-05-23T09:29:38;102145.13;;;16.75;51.59
66945;BME280;53853;51.982;5.928;2023-05-23T09:32:14;102157.09;;;16.81;51.20
66945;BME280;53853;51.982;5.928;2023-05-23T09:34:55;102156.09;;;16.82;51.07
66945;BME280;53853;51.982;5.928;2023-05-23T09:37:33;102154.25;;;16.82;51.33
66945;BME280;53853;51.982;5.928;2023-05-23T09:40:06;102151.81;;;16.71;50.34
66945;BME280;53853;51.982;5.928;2023-05-23T09:42:42;102151.50;;;16.48;50.88
66945;BME280;53853;51.982;5.928;2023-05-23T09:45:13;102155.19;;;16.47;50.98
66945;BME280;53853;51.982;5.928;2023-05-23T09:47:49;102147.94;;;16.47;51.80
66945;BME280;53853;51.982;5.928;2023-05-23T09:50:21;102148.41;;;16.61;52.48
66945;BME280;53853;51.982;5.928;2023-05-23T09:52:54;102151.97;;;16.70;50.26
66945;BME280;53853;51.982;5.928;2023-05-23T09:55:24;102150.31;;;16.69;50.65
66945;BME280;53853;51.982;5.928;2023-05-23T09:57:54;102152.84;;;16.70;50.68
66945;BME280;53853;51.982;5.928;2023-05-23T10:00:27;102152.13;;;16.68;50.94
66945;BME280;53853;51.982;5.928;2023-05-23T10:03:07;102148.50;;;16.77;50.83
66945;BME280;53853;51.982;5.928;2023-05-23T10:05:43;102144.66;;;16.80;50.84
66945;BME280;53853;51.982;5.928;2023-05-23T10:08:20;102161.09;;;16.95;51.61
66945;BME280;53853;51.982;5.928;2023-05-23T10:14:04;102146.81;;;17.02;49.33
66945;BME280;53853;51.982;5.928;2023-05-23T10:16:37;102147.66;;;17.03;48.89
66945;BME280;53853;51.982;5.928;2023-05-23T10:19:15;102140.13;;;17.07;49.49
66945;BME280;53853;51.982;5.928;2023-05-23T10:21:51;102144.84;;;17.13;49.18
66945;BME280;53853;51.982;5.928;2023-05-23T10:24:27;102137.59;;;17.05;47.16
66945;BME280;53853;51.982;5.928;2023-05-23T10:26:57;102147.13;;;16.99;48.02
66945;BME280;53853;51.982;5.928;2023-05-23T10:29:28;102140.47;;;17.12;48.16
66945;BME280;53853;51.982;5.928;2023-05-23T10:31:59;102154.63;;;17.14;46.56
66945;BME280;53853;51.982;5.928;2023-05-23T10:34:33;102154.34;;;17.25;46.73
66945;BME280;53853;51.982;5.928;2023-05-23T10:37:07;102149.25;;;17.22;45.26
66945;BME280;53853;51.982;5.928;2023-05-23T10:39:53;102162.69;;;17.14;44.92
66945;BME280;53853;51.982;5.928;2023-05-23T10:42:30;102148.75;;;17.18;44.65
66945;BME280;53853;51.982;5.928;2023-05-23T10:45:23;102142.41;;;17.28;43.78
66945;BME280;53853;51.982;5.928;2023-05-23T10:47:53;102155.22;;;17.34;46.07
66945;BME280;53853;51.982;5.928;2023-05-23T10:50:33;102162.59;;;17.32;43.71
66945;BME280;53853;51.982;5.928;2023-05-23T10:53:05;102151.19;;;17.38;43.38
66945;BME280;53853;51.982;5.928;2023-05-23T10:55:39;102141.59;;;17.44;43.59
66945;BME280;53853;51.982;5.928;2023-05-23T10:58:10;102146.34;;;17.50;45.43
66945;BME280;53853;51.982;5.928;2023-05-23T11:00:50;102149.75;;;17.60;44.91
66945;BME280;53853;51.982;5.928;2023-05-23T11:03:34;102147.06;;;17.68;44.75
66945;BME280;53853;51.982;5.928;2023-05-23T11:06:06;102158.88;;;17.75;44.19
66945;BME280;53853;51.982;5.928;2023-05-23T11:08:39;102150.31;;;17.80;45.00
66945;BME280;53853;51.982;5.928;2023-05-23T11:11:14;102153.66;;;17.74;45.50
66945;BME280;53853;51.982;5.928;2023-05-23T11:13:55;102148.44;;;17.81;46.56
66945;BME280;53853;51.982;5.928;2023-05-23T11:16:28;102158.09;;;17.91;45.06
66945;BME280;53853;51.982;5.928;2023-05-23T11:19:22;102156.03;;;17.77;44.24
66945;BME280;53853;51.982;5.928;2023-05-23T11:21:57;102147.44;;;17.82;44.55
66945;BME280;53853;51.982;5.928;2023-05-23T11:24:48;102147.16;;;18.01;44.77
66945;BME280;53853;51.982;5.928;2023-05-23T11:27:28;102131.16;;;18.24;44.49
66945;BME280;53853;51.982;5.928;2023-05-23T11:30:02;102141.28;;;18.39;44.02
66945;BME280;53853;51.982;5.928;2023-05-23T11:32:32;102147.47;;;18.47;43.65
66945;BME280;53853;51.982;5.928;2023-05-23T11:35:04;102160.97;;;18.47;42.22
66945;BME280;53853;51.982;5.928;2023-05-23T11:37:35;102160.66;;;18.26;42.95
66945;BME280;53853;51.982;5.928;2023-05-23T11:40:25;102156.94;;;18.19;42.69
66945;BME280;53853;51.982;5.928;2023-05-23T11:42:58;102160.16;;;18.14;44.05
66945;BME280;53853;51.982;5.928;2023-05-23T11:45:29;102166.72;;;18.12;44.63
66945;BME280;53853;51.982;5.928;2023-05-23T11:48:05;102161.84;;;18.07;43.45
66945;BME280;53853;51.982;5.928;2023-05-23T11:50:43;102169.75;;;18.08;44.40
66945;BME280;53853;51.982;5.928;2023-05-23T11:53:13;102160.31;;;18.13;41.69
66945;BME280;53853;51.982;5.928;2023-05-23T11:55:50;102173.47;;;18.16;41.61
66945;BME280;53853;51.982;5.928;2023-05-23T11:58:27;102176.81;;;18.09;43.85
66945;BME280;53853;51.982;5.928;2023-05-23T12:01:00;102171.44;;;18.09;44.50
66945;BME280;53853;51.982;5.928;2023-05-23T12:03:31;102174.13;;;18.09;44.01
66945;BME280;53853;51.982;5.928;2023-05-23T12:06:01;102173.13;;;18.10;43.92
66945;BME280;53853;51.982;5.928;2023-05-23T12:08:31;102181.22;;;18.19;44.30
66945;BME280;53853;51.982;5.928;2023-05-23T12:11:01;102168.09;;;18.24;43.64
66945;BME280;53853;51.982;5.928;2023-05-23T12:13:33;102168.59;;;18.36;43.54
66945;BME280;53853;51.982;5.928;2023-05-23T12:16:03;102168.59;;;18.44;42.35
66945;BME280;53853;51.982;5.928;2023-05-23T12:18:33;102168.75;;;18.42;40.63
66945;BME280;53853;51.982;5.928;2023-05-23T12:21:07;102174.81;;;18.44;41.86
66945;BME280;53853;51.982;5.928;2023-05-23T12:23:38;102173.81;;;18.37;40.97
66945;BME280;53853;51.982;5.928;2023-05-23T12:26:08;102181.75;;;18.31;41.74
66945;BME280;53853;51.982;5.928;2023-05-23T12:28:42;102179.56;;;18.34;40.67
66945;BME280;53853;51.982;5.928;2023-05-23T12:31:15;102186.66;;;18.35;40.63
66945;BME280;53853;51.982;5.928;2023-05-23T12:33:46;102189.34;;;18.35;39.74
66945;BME280;53853;51.982;5.928;2023-05-23T12:36:21;102184.28;;;18.32;40.15
66945;BME280;53853;51.982;5.928;2023-05-23T12:38:52;102191.88;;;18.45;41.29
66945;BME280;53853;51.982;5.928;2023-05-23T12:41:22;102186.16;;;18.48;40.53
66945;BME280;53853;51.982;5.928;2023-05-23T12:43:55;102192.53;;;18.55;42.61
66945;BME280;53853;51.982;5.928;2023-05-23T12:46:26;102188.13;;;18.79;42.33
66945;BME280;53853;51.982;5.928;2023-05-23T12:48:56;102193.38;;;18.89;40.21
66945;BME280;53853;51.982;5.928;2023-05-23T12:51:26;102199.13;;;18.86;38.65
66945;BME280;53853;51.982;5.928;2023-05-23T12:53:56;102196.09;;;18.64;39.00
66945;BME280;53853;51.982;5.928;2023-05-23T12:56:26;102198.94;;;18.46;40.09
66945;BME280;53853;51.982;5.928;2023-05-23T12:58:59;102204.88;;;18.41;40.91
66945;BME280;53853;51.982;5.928;2023-05-23T13:01:30;102207.38;;;18.26;40.40
66945;BME280;53853;51.982;5.928;2023-05-23T13:04:00;102201.63;;;18.05;40.54
66945;BME280;53853;51.982;5.928;2023-05-23T13:06:30;102188.16;;;18.05;41.39
66945;BME280;53853;51.982;5.928;2023-05-23T13:08:59;102190.03;;;18.21;42.15
66945;BME280;53853;51.982;5.928;2023-05-23T13:11:29;102191.72;;;18.46;42.80
66945;BME280;53853;51.982;5.928;2023-05-23T13:14:02;102185.28;;;18.64;41.95
66945;BME280;53853;51.982;5.928;2023-05-23T13:16:32;102193.19;;;18.74;41.54
66945;BME280;53853;51.982;5.928;2023-05-23T13:19:02;102211.09;;;18.67;39.23
66945;BME280;53853;51.982;5.928;2023-05-23T13:21:32;102201.66;;;18.46;39.18